23:56
Airports
Links
Donate
Help keep this website running!
PayPal
Bitcoin
METAR
VIDP 232330Z 28006KT 0600 R28/P2000 R29/1700 MIFG FEW100 10/09 Q1012 NOSIG
Current Weather Conditions at VIDP
LIFR 23:30:00 23-01-18
Altimeter:29.88 hg
Temp:10.0°c 50°f
Dew point:9.0°c 48°f
Wind:6 knots, 6.9 mph, 3 m/s, from 280°
Visibility:0.37 statute miles
10000(FEW) A few
No significant weather changes expected within 2 hours.
Past METAR reports
LIFR 23:00:00 23-01-18
Altimeter:29.85 hg
Temp:10.0°c 50°f
Dew point:9.0°c 48°f
Wind:4 knots, 4.6 mph, 2 m/s, from 270°
Visibility:0.37 statute miles
(CLR) Clear
No significant weather changes expected within 2 hours.
VIDP 232300Z 27004KT 0600 R28/P2000 R29/1700 MIFG NSC 10/09 Q1011 NOSIG
LIFR 22:30:00 23-01-18
Altimeter:29.85 hg
Temp:10.0°c 50°f
Dew point:9.0°c 48°f
Wind:0 knots, 0 mph, 0 m/s,
Variable direction
Visibility:0.43 statute miles
(CLR) Clear
VIDP 232230Z 00000KT 0700 R28/P2000 R29/1900 MIFG NSC 10/09 Q1011 BECMG 0600 MIFG
LIFR 22:00:00 23-01-18
Altimeter:29.85 hg
Temp:10.0°c 50°f
Dew point:9.0°c 48°f
Wind:0 knots, 0 mph, 0 m/s,
Variable direction
Visibility:0.5 statute miles
10000(FEW) A few
No significant weather changes expected within 2 hours.
VIDP 232200Z 00000KT 0800 R28/P2000 R29/1900 MIFG FEW100 10/09 Q1011 NOSIG
LIFR 21:30:00 23-01-18
Altimeter:29.85 hg
Temp:10.0°c 50°f
Dew point:9.0°c 48°f
Wind:3 knots, 3.5 mph, 2 m/s, from 180°
Visibility:0.5 statute miles
10000(SCT) Scattered
3000(FEW) A few
No significant weather changes expected within 2 hours.
VIDP 232130Z 18003KT 0800 R28/P2000 R29/P2000 MIFG FEW030 SCT100 10/09 Q1011 NOSIG
LIFR 21:00:00 23-01-18
Altimeter:29.85 hg
Temp:10.0°c 50°f
Dew point:9.0°c 48°f
Wind:0 knots, 0 mph, 0 m/s,
Variable direction
Visibility:0.5 statute miles
10000(SCT) Scattered
3000(FEW) A few
No significant weather changes expected within 2 hours.
VIDP 232100Z 00000KT 0800 R28/P2000 R29/P2000 MIFG FEW030 SCT100 10/09 Q1011 NOSIG
LIFR 20:30:00 23-01-18
Altimeter:29.85 hg
Temp:10.0°c 50°f
Dew point:9.0°c 48°f
Wind:0 knots, 0 mph, 0 m/s,
Variable direction
Visibility:0.62 statute miles
10000(SCT) Scattered
3000(FEW) A few
VIDP 232030Z 00000KT 1000 R28/P2000 R29/P2000 BR FEW030 SCT100 10/09 Q1011 BECMG 0800 MIFG
TAF
TAF VIDP 232300Z 2400/2506 28005KT 0400 FG SCT100 BECMG 2401/2403 0300 FG BECMG 2404/2406 30008KT 0600 MIFG BECMG 2409/2411 32008KT 3000 HZ NSC BECMG 2415/2417 27005KT 1500 BR HZ BECMG 2423/2501 00000KT 0100 FG VV/// BECMG 2504/2505 27006KT 0500 FG
Forecast at VIDP
00:00 24-01-18 to 01:00 24-01-18
FG
Wind:5 Knots from 280°
Visibility:0.25 statute miles
10000SCT Scattered
BECMG 01:00 24-01-18 to 04:00 24-01-18
FG
Wind:5 Knots from 280°
Visibility:0.19 statute miles
10000SCT Scattered
BECMG 04:00 24-01-18 to 09:00 24-01-18
MIFG
Wind:8 Knots from 300°
Visibility:0.37 statute miles
10000SCT Scattered
BECMG 09:00 24-01-18 to 15:00 24-01-18
HZ
Wind:8 Knots from 320°
Visibility:1.86 statute miles
NSC
BECMG 15:00 24-01-18 to 23:00 24-01-18
BR HZ
Wind:5 Knots from 270°
Visibility:0.93 statute miles
NSC
BECMG 23:00 24-01-18 to 04:00 25-01-18
FG
Wind:0 Knots Variable direction
Visibility:0.06 statute miles
NSC
BECMG 04:00 25-01-18 to 06:00 25-01-18
FG
Wind:6 Knots from 270°
Visibility:0.31 statute miles
NSC